sensor_id;sensor_type;location;lat;lon;timestamp;P1;durP1;ratioP1;P2;durP2;ratioP2
17864;SDS011;9058;52.018;4.202;2023-06-19T00:00:36;1.80;;;1.50;;
17864;SDS011;9058;52.018;4.202;2023-06-19T00:03:04;2.80;;;1.90;;
17864;SDS011;9058;52.018;4.202;2023-06-19T00:05:30;3.40;;;1.70;;
17864;SDS011;9058;52.018;4.202;2023-06-19T00:07:57;3.45;;;1.90;;
17864;SDS011;9058;52.018;4.202;2023-06-19T00:10:25;2.90;;;2.20;;
17864;SDS011;9058;52.018;4.202;2023-06-19T00:12:51;2.95;;;2.47;;
17864;SDS011;9058;52.018;4.202;2023-06-19T00:15:18;3.42;;;2.47;;
17864;SDS011;9058;52.018;4.202;2023-06-19T00:17:44;4.15;;;3.30;;
17864;SDS011;9058;52.018;4.202;2023-06-19T00:20:11;5.55;;;3.33;;
17864;SDS011;9058;52.018;4.202;2023-06-19T00:22:38;4.13;;;3.72;;
17864;SDS011;9058;52.018;4.202;2023-06-19T00:25:06;4.57;;;3.50;;
17864;SDS011;9058;52.018;4.202;2023-06-19T00:27:36;5.60;;;3.80;;
17864;SDS011;9058;52.018;4.202;2023-06-19T00:30:05;4.32;;;3.83;;
17864;SDS011;9058;52.018;4.202;2023-06-19T00:32:31;4.88;;;3.50;;
17864;SDS011;9058;52.018;4.202;2023-06-19T00:35:06;5.53;;;3.60;;
17864;SDS011;9058;52.018;4.202;2023-06-19T00:37:33;3.60;;;3.30;;
17864;SDS011;9058;52.018;4.202;2023-06-19T00:40:00;5.30;;;2.97;;
17864;SDS011;9058;52.018;4.202;2023-06-19T00:42:26;4.43;;;2.80;;
17864;SDS011;9058;52.018;4.202;2023-06-19T00:44:56;4.82;;;2.88;;
17864;SDS011;9058;52.018;4.202;2023-06-19T00:47:22;4.43;;;4.03;;
17864;SDS011;9058;52.018;4.202;2023-06-19T00:49:50;4.93;;;4.43;;
17864;SDS011;9058;52.018;4.202;2023-06-19T00:52:18;5.53;;;4.03;;
17864;SDS011;9058;52.018;4.202;2023-06-19T00:54:44;4.63;;;4.07;;
17864;SDS011;9058;52.018;4.202;2023-06-19T00:57:11;5.22;;;4.72;;
17864;SDS011;9058;52.018;4.202;2023-06-19T00:59:38;7.65;;;5.70;;
17864;SDS011;9058;52.018;4.202;2023-06-19T01:02:06;6.03;;;5.43;;
17864;SDS011;9058;52.018;4.202;2023-06-19T01:04:33;7.15;;;5.82;;
17864;SDS011;9058;52.018;4.202;2023-06-19T01:07:02;7.15;;;6.45;;
17864;SDS011;9058;52.018;4.202;2023-06-19T01:09:37;6.90;;;6.20;;
17864;SDS011;9058;52.018;4.202;2023-06-19T01:12:08;9.70;;;7.30;;
17864;SDS011;9058;52.018;4.202;2023-06-19T01:14:38;8.38;;;7.35;;
17864;SDS011;9058;52.018;4.202;2023-06-19T01:17:07;8.70;;;7.90;;
17864;SDS011;9058;52.018;4.202;2023-06-19T01:19:34;9.23;;;8.43;;
17864;SDS011;9058;52.018;4.202;2023-06-19T01:22:04;9.85;;;8.93;;
17864;SDS011;9058;52.018;4.202;2023-06-19T01:24:30;10.07;;;9.13;;
17864;SDS011;9058;52.018;4.202;2023-06-19T01:26:56;9.90;;;9.10;;
17864;SDS011;9058;52.018;4.202;2023-06-19T01:29:23;12.50;;;11.32;;
17864;SDS011;9058;52.018;4.202;2023-06-19T01:31:50;12.98;;;11.55;;
17864;SDS011;9058;52.018;4.202;2023-06-19T01:34:19;13.23;;;11.93;;
17864;SDS011;9058;52.018;4.202;2023-06-19T01:36:47;14.25;;;12.82;;
17864;SDS011;9058;52.018;4.202;2023-06-19T01:39:15;15.68;;;14.23;;
17864;SDS011;9058;52.018;4.202;2023-06-19T01:41:43;15.35;;;13.70;;
17864;SDS011;9058;52.018;4.202;2023-06-19T01:44:11;18.83;;;13.80;;
17864;SDS011;9058;52.018;4.202;2023-06-19T01:46:37;16.73;;;15.10;;
17864;SDS011;9058;52.018;4.202;2023-06-19T01:49:06;16.25;;;14.57;;
17864;SDS011;9058;52.018;4.202;2023-06-19T01:51:33;15.80;;;14.30;;
17864;SDS011;9058;52.018;4.202;2023-06-19T01:54:00;15.95;;;14.15;;
17864;SDS011;9058;52.018;4.202;2023-06-19T01:56:28;16.70;;;15.00;;
17864;SDS011;9058;52.018;4.202;2023-06-19T01:58:55;18.45;;;16.50;;
17864;SDS011;9058;52.018;4.202;2023-06-19T02:01:22;24.80;;;21.25;;
17864;SDS011;9058;52.018;4.202;2023-06-19T02:03:48;32.67;;;24.85;;
17864;SDS011;9058;52.018;4.202;2023-06-19T02:06:15;40.03;;;30.58;;
17864;SDS011;9058;52.018;4.202;2023-06-19T02:08:42;45.42;;;33.85;;
17864;SDS011;9058;52.018;4.202;2023-06-19T02:11:08;53.83;;;36.63;;
17864;SDS011;9058;52.018;4.202;2023-06-19T02:13:36;53.67;;;39.13;;
17864;SDS011;9058;52.018;4.202;2023-06-19T02:16:02;56.10;;;44.47;;
17864;SDS011;9058;52.018;4.202;2023-06-19T02:18:29;58.45;;;43.22;;
17864;SDS011;9058;52.018;4.202;2023-06-19T02:20:55;55.47;;;44.28;;
17864;SDS011;9058;52.018;4.202;2023-06-19T02:23:22;59.90;;;40.80;;
17864;SDS011;9058;52.018;4.202;2023-06-19T02:25:49;54.75;;;41.45;;
17864;SDS011;9058;52.018;4.202;2023-06-19T02:28:15;51.53;;;40.13;;
17864;SDS011;9058;52.018;4.202;2023-06-19T02:30:44;51.08;;;39.10;;
17864;SDS011;9058;52.018;4.202;2023-06-19T02:33:11;49.88;;;39.17;;
17864;SDS011;9058;52.018;4.202;2023-06-19T02:35:38;47.47;;;39.33;;
17864;SDS011;9058;52.018;4.202;2023-06-19T02:38:06;50.30;;;38.85;;
17864;SDS011;9058;52.018;4.202;2023-06-19T02:40:34;46.25;;;37.10;;
17864;SDS011;9058;52.018;4.202;2023-06-19T02:43:00;49.00;;;40.17;;
17864;SDS011;9058;52.018;4.202;2023-06-19T02:45:27;50.88;;;41.05;;
17864;SDS011;9058;52.018;4.202;2023-06-19T02:47:55;45.00;;;37.13;;
17864;SDS011;9058;52.018;4.202;2023-06-19T02:50:22;50.47;;;38.95;;
17864;SDS011;9058;52.018;4.202;2023-06-19T02:52:48;51.05;;;38.85;;
17864;SDS011;9058;52.018;4.202;2023-06-19T02:55:14;41.05;;;33.90;;
17864;SDS011;9058;52.018;4.202;2023-06-19T02:57:41;40.35;;;29.75;;
17864;SDS011;9058;52.018;4.202;2023-06-19T03:00:07;37.13;;;28.77;;
17864;SDS011;9058;52.018;4.202;2023-06-19T03:02:36;41.08;;;31.23;;
17864;SDS011;9058;52.018;4.202;2023-06-19T03:05:10;52.65;;;38.13;;
17864;SDS011;9058;52.018;4.202;2023-06-19T03:07:37;59.10;;;40.72;;
17864;SDS011;9058;52.018;4.202;2023-06-19T03:10:04;60.50;;;42.08;;
17864;SDS011;9058;52.018;4.202;2023-06-19T03:12:31;67.38;;;42.80;;
17864;SDS011;9058;52.018;4.202;2023-06-19T03:14:58;74.55;;;46.78;;
17864;SDS011;9058;52.018;4.202;2023-06-19T03:17:25;71.82;;;44.85;;
17864;SDS011;9058;52.018;4.202;2023-06-19T03:19:51;66.88;;;41.63;;
17864;SDS011;9058;52.018;4.202;2023-06-19T03:22:20;53.97;;;35.58;;
17864;SDS011;9058;52.018;4.202;2023-06-19T03:24:46;55.33;;;35.90;;
17864;SDS011;9058;52.018;4.202;2023-06-19T03:27:13;47.58;;;31.83;;
17864;SDS011;9058;52.018;4.202;2023-06-19T03:29:39;40.53;;;28.00;;
17864;SDS011;9058;52.018;4.202;2023-06-19T03:32:06;36.58;;;25.38;;
17864;SDS011;9058;52.018;4.202;2023-06-19T03:34:32;35.80;;;23.10;;
17864;SDS011;9058;52.018;4.202;2023-06-19T03:36:58;29.05;;;22.40;;
17864;SDS011;9058;52.018;4.202;2023-06-19T03:39:26;31.10;;;21.60;;
17864;SDS011;9058;52.018;4.202;2023-06-19T03:41:52;30.83;;;22.80;;
17864;SDS011;9058;52.018;4.202;2023-06-19T03:44:19;25.67;;;19.48;;
17864;SDS011;9058;52.018;4.202;2023-06-19T03:46:46;24.45;;;19.63;;
17864;SDS011;9058;52.018;4.202;2023-06-19T03:49:14;24.30;;;17.33;;
17864;SDS011;9058;52.018;4.202;2023-06-19T03:51:40;23.40;;;16.77;;
17864;SDS011;9058;52.018;4.202;2023-06-19T03:54:06;23.55;;;16.65;;
17864;SDS011;9058;52.018;4.202;2023-06-19T03:56:34;22.52;;;16.77;;
17864;SDS011;9058;52.018;4.202;2023-06-19T03:59:00;24.55;;;18.25;;
17864;SDS011;9058;52.018;4.202;2023-06-19T04:01:27;26.40;;;19.00;;
17864;SDS011;9058;52.018;4.202;2023-06-19T04:03:54;27.02;;;18.60;;
17864;SDS011;9058;52.018;4.202;2023-06-19T04:06:20;26.75;;;19.00;;
17864;SDS011;9058;52.018;4.202;2023-06-19T04:08:47;25.90;;;18.90;;
17864;SDS011;9058;52.018;4.202;2023-06-19T04:11:14;24.77;;;18.38;;
17864;SDS011;9058;52.018;4.202;2023-06-19T04:13:41;25.02;;;18.65;;
17864;SDS011;9058;52.018;4.202;2023-06-19T04:16:08;24.45;;;19.13;;
17864;SDS011;9058;52.018;4.202;2023-06-19T04:18:35;24.85;;;19.10;;
17864;SDS011;9058;52.018;4.202;2023-06-19T04:21:01;26.27;;;18.45;;
17864;SDS011;9058;52.018;4.202;2023-06-19T04:23:28;24.27;;;18.27;;
17864;SDS011;9058;52.018;4.202;2023-06-19T04:25:54;25.20;;;18.23;;
17864;SDS011;9058;52.018;4.202;2023-06-19T04:28:21;29.75;;;20.67;;
17864;SDS011;9058;52.018;4.202;2023-06-19T04:30:48;24.13;;;17.92;;
17864;SDS011;9058;52.018;4.202;2023-06-19T04:33:15;25.77;;;17.10;;
17864;SDS011;9058;52.018;4.202;2023-06-19T04:35:41;23.27;;;17.35;;
17864;SDS011;9058;52.018;4.202;2023-06-19T04:38:07;29.73;;;20.27;;
17864;SDS011;9058;52.018;4.202;2023-06-19T04:40:34;33.25;;;20.20;;
17864;SDS011;9058;52.018;4.202;2023-06-19T04:43:01;31.30;;;22.92;;
17864;SDS011;9058;52.018;4.202;2023-06-19T04:45:30;28.58;;;21.35;;
17864;SDS011;9058;52.018;4.202;2023-06-19T04:47:58;30.65;;;21.30;;
17864;SDS011;9058;52.018;4.202;2023-06-19T04:50:28;33.10;;;22.30;;
17864;SDS011;9058;52.018;4.202;2023-06-19T04:52:54;31.33;;;20.83;;
17864;SDS011;9058;52.018;4.202;2023-06-19T04:55:20;28.10;;;22.15;;
17864;SDS011;9058;52.018;4.202;2023-06-19T04:57:47;33.20;;;23.90;;
17864;SDS011;9058;52.018;4.202;2023-06-19T05:00:13;36.20;;;24.40;;
17864;SDS011;9058;52.018;4.202;2023-06-19T05:02:44;26.85;;;22.30;;
17864;SDS011;9058;52.018;4.202;2023-06-19T05:05:13;35.33;;;23.83;;
17864;SDS011;9058;52.018;4.202;2023-06-19T05:07:40;27.88;;;23.30;;
17864;SDS011;9058;52.018;4.202;2023-06-19T05:10:08;31.27;;;23.70;;
17864;SDS011;9058;52.018;4.202;2023-06-19T05:12:35;37.80;;;22.63;;
17864;SDS011;9058;52.018;4.202;2023-06-19T05:15:02;24.67;;;19.55;;
17864;SDS011;9058;52.018;4.202;2023-06-19T05:17:28;28.73;;;19.85;;
17864;SDS011;9058;52.018;4.202;2023-06-19T05:19:55;29.00;;;21.27;;
17864;SDS011;9058;52.018;4.202;2023-06-19T05:22:22;28.40;;;21.58;;
17864;SDS011;9058;52.018;4.202;2023-06-19T05:24:49;27.67;;;22.98;;
17864;SDS011;9058;52.018;4.202;2023-06-19T05:27:16;27.67;;;22.55;;
17864;SDS011;9058;52.018;4.202;2023-06-19T05:29:42;29.73;;;23.33;;
17864;SDS011;9058;52.018;4.202;2023-06-19T05:32:09;29.40;;;23.02;;
17864;SDS011;9058;52.018;4.202;2023-06-19T05:34:35;24.27;;;19.65;;
17864;SDS011;9058;52.018;4.202;2023-06-19T05:37:02;25.48;;;21.92;;
17864;SDS011;9058;52.018;4.202;2023-06-19T05:39:30;25.60;;;21.45;;
17864;SDS011;9058;52.018;4.202;2023-06-19T05:41:56;27.13;;;21.30;;
17864;SDS011;9058;52.018;4.202;2023-06-19T05:44:23;21.33;;;18.58;;
17864;SDS011;9058;52.018;4.202;2023-06-19T05:46:49;27.00;;;20.08;;
17864;SDS011;9058;52.018;4.202;2023-06-19T05:49:15;23.00;;;20.50;;
17864;SDS011;9058;52.018;4.202;2023-06-19T05:51:42;25.95;;;20.63;;
17864;SDS011;9058;52.018;4.202;2023-06-19T05:54:08;24.48;;;18.15;;
17864;SDS011;9058;52.018;4.202;2023-06-19T05:56:36;25.77;;;19.83;;
17864;SDS011;9058;52.018;4.202;2023-06-19T05:59:02;19.63;;;17.05;;
17864;SDS011;9058;52.018;4.202;2023-06-19T06:01:29;21.77;;;17.30;;
17864;SDS011;9058;52.018;4.202;2023-06-19T06:03:56;22.58;;;17.63;;
17864;SDS011;9058;52.018;4.202;2023-06-19T06:09:25;25.15;;;17.58;;
17864;SDS011;9058;52.018;4.202;2023-06-19T06:11:53;23.77;;;19.45;;
17864;SDS011;9058;52.018;4.202;2023-06-19T06:14:19;21.35;;;16.60;;
17864;SDS011;9058;52.018;4.202;2023-06-19T06:16:46;21.38;;;16.23;;
17864;SDS011;9058;52.018;4.202;2023-06-19T06:19:12;24.17;;;17.77;;
17864;SDS011;9058;52.018;4.202;2023-06-19T06:21:39;26.75;;;17.90;;
17864;SDS011;9058;52.018;4.202;2023-06-19T06:24:06;22.20;;;17.15;;
17864;SDS011;9058;52.018;4.202;2023-06-19T06:26:32;18.50;;;15.38;;
17864;SDS011;9058;52.018;4.202;2023-06-19T06:29:01;21.73;;;17.58;;
17864;SDS011;9058;52.018;4.202;2023-06-19T06:31:28;18.50;;;14.82;;
17864;SDS011;9058;52.018;4.202;2023-06-19T06:33:55;19.30;;;15.32;;
17864;SDS011;9058;52.018;4.202;2023-06-19T06:36:22;18.60;;;14.77;;
17864;SDS011;9058;52.018;4.202;2023-06-19T06:38:50;18.52;;;13.80;;
17864;SDS011;9058;52.018;4.202;2023-06-19T06:41:16;16.00;;;12.63;;
17864;SDS011;9058;52.018;4.202;2023-06-19T06:43:42;18.23;;;14.15;;
17864;SDS011;9058;52.018;4.202;2023-06-19T06:46:10;17.13;;;12.40;;
17864;SDS011;9058;52.018;4.202;2023-06-19T06:48:36;17.92;;;12.73;;
17864;SDS011;9058;52.018;4.202;2023-06-19T06:51:03;15.77;;;12.38;;
17864;SDS011;9058;52.018;4.202;2023-06-19T06:53:29;15.13;;;13.07;;
17864;SDS011;9058;52.018;4.202;2023-06-19T06:55:57;16.00;;;13.70;;
17864;SDS011;9058;52.018;4.202;2023-06-19T06:58:24;14.85;;;13.00;;
17864;SDS011;9058;52.018;4.202;2023-06-19T07:00:51;16.17;;;12.70;;
17864;SDS011;9058;52.018;4.202;2023-06-19T07:03:18;14.90;;;12.77;;
17864;SDS011;9058;52.018;4.202;2023-06-19T07:05:45;17.85;;;13.13;;
17864;SDS011;9058;52.018;4.202;2023-06-19T07:08:11;15.45;;;12.25;;
17864;SDS011;9058;52.018;4.202;2023-06-19T07:10:38;17.48;;;13.77;;
17864;SDS011;9058;52.018;4.202;2023-06-19T07:13:05;16.08;;;12.93;;
17864;SDS011;9058;52.018;4.202;2023-06-19T07:15:31;20.80;;;14.63;;
17864;SDS011;9058;52.018;4.202;2023-06-19T07:17:58;17.25;;;13.90;;
17864;SDS011;9058;52.018;4.202;2023-06-19T07:20:26;17.75;;;14.48;;
17864;SDS011;9058;52.018;4.202;2023-06-19T07:22:52;16.52;;;13.52;;
17864;SDS011;9058;52.018;4.202;2023-06-19T07:25:18;14.35;;;12.80;;
17864;SDS011;9058;52.018;4.202;2023-06-19T07:27:45;13.60;;;11.98;;
17864;SDS011;9058;52.018;4.202;2023-06-19T07:30:11;15.43;;;12.68;;
17864;SDS011;9058;52.018;4.202;2023-06-19T07:32:38;14.82;;;12.07;;
17864;SDS011;9058;52.018;4.202;2023-06-19T07:35:05;18.17;;;13.00;;
17864;SDS011;9058;52.018;4.202;2023-06-19T07:37:33;16.60;;;13.43;;
17864;SDS011;9058;52.018;4.202;2023-06-19T07:40:00;17.90;;;12.48;;
17864;SDS011;9058;52.018;4.202;2023-06-19T07:42:26;17.45;;;12.40;;
17864;SDS011;9058;52.018;4.202;2023-06-19T07:44:52;17.45;;;12.57;;
17864;SDS011;9058;52.018;4.202;2023-06-19T07:47:19;15.50;;;12.40;;
17864;SDS011;9058;52.018;4.202;2023-06-19T07:49:46;17.83;;;12.77;;
17864;SDS011;9058;52.018;4.202;2023-06-19T07:52:12;16.73;;;13.50;;
17864;SDS011;9058;52.018;4.202;2023-06-19T07:54:49;18.27;;;12.85;;
17864;SDS011;9058;52.018;4.202;2023-06-19T07:57:16;13.10;;;11.75;;
17864;SDS011;9058;52.018;4.202;2023-06-19T07:59:42;13.60;;;11.57;;
17864;SDS011;9058;52.018;4.202;2023-06-19T08:02:09;12.68;;;11.27;;
17864;SDS011;9058;52.018;4.202;2023-06-19T08:04:36;17.40;;;11.25;;
17864;SDS011;9058;52.018;4.202;2023-06-19T08:07:02;16.70;;;11.85;;
17864;SDS011;9058;52.018;4.202;2023-06-19T08:09:29;14.52;;;10.93;;
17864;SDS011;9058;52.018;4.202;2023-06-19T08:11:56;12.52;;;11.23;;
17864;SDS011;9058;52.018;4.202;2023-06-19T08:14:23;13.32;;;10.55;;
17864;SDS011;9058;52.018;4.202;2023-06-19T08:16:49;17.77;;;10.50;;
17864;SDS011;9058;52.018;4.202;2023-06-19T08:19:16;12.45;;;10.38;;
17864;SDS011;9058;52.018;4.202;2023-06-19T08:21:42;15.55;;;10.98;;
17864;SDS011;9058;52.018;4.202;2023-06-19T08:24:08;15.05;;;10.20;;
17864;SDS011;9058;52.018;4.202;2023-06-19T08:26:35;18.38;;;10.77;;
17864;SDS011;9058;52.018;4.202;2023-06-19T08:29:03;14.32;;;11.05;;
17864;SDS011;9058;52.018;4.202;2023-06-19T08:31:29;18.38;;;11.40;;
17864;SDS011;9058;52.018;4.202;2023-06-19T08:33:59;14.73;;;12.00;;
17864;SDS011;9058;52.018;4.202;2023-06-19T08:36:25;15.93;;;10.57;;
17864;SDS011;9058;52.018;4.202;2023-06-19T08:38:52;12.57;;;10.85;;
17864;SDS011;9058;52.018;4.202;2023-06-19T08:41:19;11.95;;;10.27;;
17864;SDS011;9058;52.018;4.202;2023-06-19T08:43:45;11.07;;;9.98;;
17864;SDS011;9058;52.018;4.202;2023-06-19T08:46:13;13.68;;;9.80;;
17864;SDS011;9058;52.018;4.202;2023-06-19T08:48:40;14.07;;;10.20;;
17864;SDS011;9058;52.018;4.202;2023-06-19T08:51:07;16.88;;;10.93;;
17864;SDS011;9058;52.018;4.202;2023-06-19T08:53:36;15.68;;;10.15;;
17864;SDS011;9058;52.018;4.202;2023-06-19T08:56:02;15.45;;;10.65;;
17864;SDS011;9058;52.018;4.202;2023-06-19T08:58:29;13.32;;;10.00;;
17864;SDS011;9058;52.018;4.202;2023-06-19T09:00:57;13.70;;;9.95;;
17864;SDS011;9058;52.018;4.202;2023-06-19T09:03:25;15.15;;;10.23;;
17864;SDS011;9058;52.018;4.202;2023-06-19T09:05:51;13.30;;;9.68;;
17864;SDS011;9058;52.018;4.202;2023-06-19T09:08:18;13.45;;;10.77;;
17864;SDS011;9058;52.018;4.202;2023-06-19T09:10:53;13.27;;;9.30;;
17864;SDS011;9058;52.018;4.202;2023-06-19T09:13:20;13.82;;;10.25;;
17864;SDS011;9058;52.018;4.202;2023-06-19T09:15:46;10.48;;;9.00;;
17864;SDS011;9058;52.018;4.202;2023-06-19T09:18:12;13.85;;;9.65;;
17864;SDS011;9058;52.018;4.202;2023-06-19T09:20:41;14.07;;;9.50;;
17864;SDS011;9058;52.018;4.202;2023-06-19T09:23:09;14.18;;;9.60;;
17864;SDS011;9058;52.018;4.202;2023-06-19T09:25:43;14.18;;;9.13;;
17864;SDS011;9058;52.018;4.202;2023-06-19T09:28:16;11.88;;;9.10;;
17864;SDS011;9058;52.018;4.202;2023-06-19T09:30:50;11.18;;;7.85;;
17864;SDS011;9058;52.018;4.202;2023-06-19T09:33:17;11.98;;;8.10;;
17864;SDS011;9058;52.018;4.202;2023-06-19T09:35:44;8.75;;;7.22;;
17864;SDS011;9058;52.018;4.202;2023-06-19T09:38:11;11.70;;;8.10;;
17864;SDS011;9058;52.018;4.202;2023-06-19T09:40:40;10.70;;;7.00;;
17864;SDS011;9058;52.018;4.202;2023-06-19T09:43:06;10.07;;;6.55;;
17864;SDS011;9058;52.018;4.202;2023-06-19T09:45:33;9.27;;;6.13;;
17864;SDS011;9058;52.018;4.202;2023-06-19T09:48:00;9.25;;;6.43;;
17864;SDS011;9058;52.018;4.202;2023-06-19T09:50:27;14.38;;;7.28;;
17864;SDS011;9058;52.018;4.202;2023-06-19T09:52:56;12.20;;;7.18;;
17864;SDS011;9058;52.018;4.202;2023-06-19T09:55:23;9.07;;;7.10;;
17864;SDS011;9058;52.018;4.202;2023-06-19T09:57:53;9.65;;;7.20;;
17864;SDS011;9058;52.018;4.202;2023-06-19T10:00:20;12.00;;;6.97;;
17864;SDS011;9058;52.018;4.202;2023-06-19T10:02:51;11.75;;;6.20;;
17864;SDS011;9058;52.018;4.202;2023-06-19T10:05:27;10.52;;;6.38;;
17864;SDS011;9058;52.018;4.202;2023-06-19T10:07:56;8.43;;;6.40;;
17864;SDS011;9058;52.018;4.202;2023-06-19T10:10:25;17.77;;;7.38;;
17864;SDS011;9058;52.018;4.202;2023-06-19T10:12:53;17.13;;;7.18;;
17864;SDS011;9058;52.018;4.202;2023-06-19T10:15:21;9.23;;;6.15;;
17864;SDS011;9058;52.018;4.202;2023-06-19T10:17:48;10.77;;;6.57;;
17864;SDS011;9058;52.018;4.202;2023-06-19T10:20:22;12.23;;;6.95;;
17864;SDS011;9058;52.018;4.202;2023-06-19T10:22:50;12.95;;;6.72;;
17864;SDS011;9058;52.018;4.202;2023-06-19T10:25:21;10.75;;;6.03;;
17864;SDS011;9058;52.018;4.202;2023-06-19T10:27:48;7.60;;;5.80;;
17864;SDS011;9058;52.018;4.202;2023-06-19T10:30:17;8.05;;;5.35;;
17864;SDS011;9058;52.018;4.202;2023-06-19T10:32:44;9.40;;;5.60;;
17864;SDS011;9058;52.018;4.202;2023-06-19T10:35:11;9.00;;;5.90;;
17864;SDS011;9058;52.018;4.202;2023-06-19T10:37:37;7.72;;;5.43;;
17864;SDS011;9058;52.018;4.202;2023-06-19T10:40:04;8.50;;;5.85;;
17864;SDS011;9058;52.018;4.202;2023-06-19T10:42:36;7.28;;;6.07;;
17864;SDS011;9058;52.018;4.202;2023-06-19T10:45:03;9.45;;;5.90;;
17864;SDS011;9058;52.018;4.202;2023-06-19T10:47:31;9.85;;;6.35;;
17864;SDS011;9058;52.018;4.202;2023-06-19T10:49:57;7.90;;;6.43;;
17864;SDS011;9058;52.018;4.202;2023-06-19T10:52:24;8.70;;;6.50;;
17864;SDS011;9058;52.018;4.202;2023-06-19T10:54:52;8.77;;;7.03;;
17864;SDS011;9058;52.018;4.202;2023-06-19T10:57:19;9.05;;;5.70;;
17864;SDS011;9058;52.018;4.202;2023-06-19T10:59:53;8.63;;;6.22;;
17864;SDS011;9058;52.018;4.202;2023-06-19T11:02:19;10.38;;;6.75;;
17864;SDS011;9058;52.018;4.202;2023-06-19T11:04:46;8.57;;;7.70;;
17864;SDS011;9058;52.018;4.202;2023-06-19T11:07:13;8.93;;;6.88;;
17864;SDS011;9058;52.018;4.202;2023-06-19T11:09:39;12.13;;;8.80;;
17864;SDS011;9058;52.018;4.202;2023-06-19T11:12:06;10.68;;;9.32;;
17864;SDS011;9058;52.018;4.202;2023-06-19T11:14:33;11.82;;;9.70;;
17864;SDS011;9058;52.018;4.202;2023-06-19T11:17:06;11.50;;;10.32;;
17864;SDS011;9058;52.018;4.202;2023-06-19T11:19:32;15.77;;;11.70;;
17864;SDS011;9058;52.018;4.202;2023-06-19T11:21:59;16.77;;;12.32;;
17864;SDS011;9058;52.018;4.202;2023-06-19T11:24:26;15.07;;;10.88;;
17864;SDS011;9058;52.018;4.202;2023-06-19T11:26:52;13.57;;;11.05;;
17864;SDS011;9058;52.018;4.202;2023-06-19T11:29:20;15.23;;;12.32;;
17864;SDS011;9058;52.018;4.202;2023-06-19T11:31:47;16.27;;;12.27;;
17864;SDS011;9058;52.018;4.202;2023-06-19T11:34:16;13.45;;;11.80;;
17864;SDS011;9058;52.018;4.202;2023-06-19T11:36:43;19.73;;;12.73;;
17864;SDS011;9058;52.018;4.202;2023-06-19T11:39:09;12.50;;;11.05;;
17864;SDS011;9058;52.018;4.202;2023-06-19T11:41:36;11.43;;;9.32;;
17864;SDS011;9058;52.018;4.202;2023-06-19T11:44:04;13.70;;;7.95;;
17864;SDS011;9058;52.018;4.202;2023-06-19T11:46:31;11.13;;;6.10;;
17864;SDS011;9058;52.018;4.202;2023-06-19T11:49:06;10.18;;;7.10;;
17864;SDS011;9058;52.018;4.202;2023-06-19T11:51:34;14.05;;;8.15;;
17864;SDS011;9058;52.018;4.202;2023-06-19T11:54:01;11.20;;;7.75;;
17864;SDS011;9058;52.018;4.202;2023-06-19T11:56:28;9.23;;;7.85;;
17864;SDS011;9058;52.018;4.202;2023-06-19T11:58:54;7.10;;;6.22;;
17864;SDS011;9058;52.018;4.202;2023-06-19T12:01:20;10.60;;;5.68;;
17864;SDS011;9058;52.018;4.202;2023-06-19T12:03:47;6.85;;;5.50;;
17864;SDS011;9058;52.018;4.202;2023-06-19T12:06:13;6.57;;;5.88;;
17864;SDS011;9058;52.018;4.202;2023-06-19T12:08:41;8.77;;;5.80;;
17864;SDS011;9058;52.018;4.202;2023-06-19T12:11:07;6.82;;;4.53;;
17864;SDS011;9058;52.018;4.202;2023-06-19T12:13:35;8.13;;;5.10;;
17864;SDS011;9058;52.018;4.202;2023-06-19T12:16:01;9.82;;;5.80;;
17864;SDS011;9058;52.018;4.202;2023-06-19T12:18:28;9.32;;;4.25;;
17864;SDS011;9058;52.018;4.202;2023-06-19T12:20:55;16.38;;;5.88;;
17864;SDS011;9058;52.018;4.202;2023-06-19T12:23:21;10.82;;;4.93;;
17864;SDS011;9058;52.018;4.202;2023-06-19T12:25:50;7.50;;;4.82;;
17864;SDS011;9058;52.018;4.202;2023-06-19T12:28:16;6.88;;;4.60;;
17864;SDS011;9058;52.018;4.202;2023-06-19T12:30:43;7.25;;;4.15;;
17864;SDS011;9058;52.018;4.202;2023-06-19T12:33:10;6.20;;;4.65;;
17864;SDS011;9058;52.018;4.202;2023-06-19T12:35:38;9.65;;;3.97;;
17864;SDS011;9058;52.018;4.202;2023-06-19T12:38:04;5.68;;;4.60;;
17864;SDS011;9058;52.018;4.202;2023-06-19T12:40:32;8.38;;;4.53;;
17864;SDS011;9058;52.018;4.202;2023-06-19T12:43:00;5.13;;;4.45;;
17864;SDS011;9058;52.018;4.202;2023-06-19T12:45:27;8.50;;;4.55;;
17864;SDS011;9058;52.018;4.202;2023-06-19T12:47:54;4.57;;;4.00;;
17864;SDS011;9058;52.018;4.202;2023-06-19T12:50:21;10.73;;;4.80;;
17864;SDS011;9058;52.018;4.202;2023-06-19T12:52:48;7.07;;;4.90;;
17864;SDS011;9058;52.018;4.202;2023-06-19T12:55:15;7.97;;;5.22;;
17864;SDS011;9058;52.018;4.202;2023-06-19T12:57:42;8.57;;;5.20;;
17864;SDS011;9058;52.018;4.202;2023-06-19T13:00:12;7.28;;;5.10;;
17864;SDS011;9058;52.018;4.202;2023-06-19T13:02:39;5.90;;;4.78;;
17864;SDS011;9058;52.018;4.202;2023-06-19T13:05:08;7.28;;;5.03;;
17864;SDS011;9058;52.018;4.202;2023-06-19T13:07:36;9.20;;;5.35;;
17864;SDS011;9058;52.018;4.202;2023-06-19T13:10:03;9.60;;;5.60;;
17864;SDS011;9058;52.018;4.202;2023-06-19T13:12:31;10.35;;;5.85;;
17864;SDS011;9058;52.018;4.202;2023-06-19T13:14:58;8.18;;;5.75;;
17864;SDS011;9058;52.018;4.202;2023-06-19T13:17:28;8.13;;;6.63;;
17864;SDS011;9058;52.018;4.202;2023-06-19T13:19:54;9.50;;;6.22;;
17864;SDS011;9058;52.018;4.202;2023-06-19T13:22:21;7.93;;;6.32;;
17864;SDS011;9058;52.018;4.202;2023-06-19T13:24:48;10.38;;;4.97;;
17864;SDS011;9058;52.018;4.202;2023-06-19T13:27:14;8.15;;;5.45;;
17864;SDS011;9058;52.018;4.202;2023-06-19T13:29:41;8.65;;;6.07;;
17864;SDS011;9058;52.018;4.202;2023-06-19T13:32:07;10.40;;;5.95;;
17864;SDS011;9058;52.018;4.202;2023-06-19T13:34:35;8.93;;;5.75;;
17864;SDS011;9058;52.018;4.202;2023-06-19T13:37:01;9.20;;;5.60;;
17864;SDS011;9058;52.018;4.202;2023-06-19T13:39:29;9.73;;;5.75;;
17864;SDS011;9058;52.018;4.202;2023-06-19T13:41:55;8.85;;;5.55;;
17864;SDS011;9058;52.018;4.202;2023-06-19T13:44:22;7.80;;;5.50;;
17864;SDS011;9058;52.018;4.202;2023-06-19T13:46:48;7.07;;;5.38;;
17864;SDS011;9058;52.018;4.202;2023-06-19T13:49:14;10.18;;;5.63;;
17864;SDS011;9058;52.018;4.202;2023-06-19T13:51:42;10.88;;;5.55;;
17864;SDS011;9058;52.018;4.202;2023-06-19T13:54:09;7.28;;;5.95;;
17864;SDS011;9058;52.018;4.202;2023-06-19T13:56:38;8.80;;;5.43;;
17864;SDS011;9058;52.018;4.202;2023-06-19T13:59:05;11.38;;;6.07;;
17864;SDS011;9058;52.018;4.202;2023-06-19T14:01:32;12.25;;;6.95;;
17864;SDS011;9058;52.018;4.202;2023-06-19T14:03:58;8.23;;;6.30;;
17864;SDS011;9058;52.018;4.202;2023-06-19T14:06:24;7.53;;;5.88;;
17864;SDS011;9058;52.018;4.202;2023-06-19T14:08:53;7.95;;;5.55;;
17864;SDS011;9058;52.018;4.202;2023-06-19T14:11:20;9.23;;;5.57;;
17864;SDS011;9058;52.018;4.202;2023-06-19T14:13:46;7.07;;;5.43;;
17864;SDS011;9058;52.018;4.202;2023-06-19T14:16:12;8.07;;;5.72;;
17864;SDS011;9058;52.018;4.202;2023-06-19T14:18:39;8.52;;;5.82;;
17864;SDS011;9058;52.018;4.202;2023-06-19T14:21:05;10.20;;;5.90;;
17864;SDS011;9058;52.018;4.202;2023-06-19T14:23:32;7.68;;;5.03;;
17864;SDS011;9058;52.018;4.202;2023-06-19T14:26:00;8.18;;;5.78;;
17864;SDS011;9058;52.018;4.202;2023-06-19T14:28:27;21.13;;;8.40;;
17864;SDS011;9058;52.018;4.202;2023-06-19T14:30:53;7.72;;;5.13;;
17864;SDS011;9058;52.018;4.202;2023-06-19T14:33:19;9.13;;;5.15;;
17864;SDS011;9058;52.018;4.202;2023-06-19T14:35:46;7.10;;;5.38;;
17864;SDS011;9058;52.018;4.202;2023-06-19T14:38:12;13.52;;;6.70;;
17864;SDS011;9058;52.018;4.202;2023-06-19T14:40:39;18.85;;;8.80;;
17864;SDS011;9058;52.018;4.202;2023-06-19T14:43:07;5.55;;;4.05;;
17864;SDS011;9058;52.018;4.202;2023-06-19T14:45:34;33.92;;;13.13;;
17864;SDS011;9058;52.018;4.202;2023-06-19T14:48:00;10.57;;;5.65;;